Time;durP1;ratioP1;P1;durP2;ratioP2;P2;SDS_P1;SDS_P2;PMS_P1;PMS_P2;Temp;Humidity;BMP_temperature;BMP_pressure;BME280_temperature;BME280_humidity;BME280_pressure;Samples;Min_cycle;Max_cycle;Signal;HPM_P1;HPM_P2
2021/11/25 00:00:19;;;;;;;23.1;12.1;;;;;;;0.3;88.15918;94752.25;;;;
2021/11/25 00:01:21;;;;;;;23.1;12.1;;;;;;;0.3;88.15918;94752.25;;;;
2021/11/25 00:02:21;;;;;;;23.1;12.1;;;;;;;0.3;88.15918;94752.25;;;;
2021/11/25 00:03:22;;;;;;;23.1;12.1;;;;;;;0.3;88.15918;94752.25;;;;
2021/11/25 00:04:23;;;;;;;23.1;12.1;;;;;;;0.3;88.15918;94752.25;;;;
2021/11/25 00:05:24;;;;;;;23.1;12.1;;;;;;;0.3;88.15918;94752.25;;;;
2021/11/25 00:06:24;;;;;;;23.1;12.1;;;;;;;0.3;88.15918;94752.25;;;;
2021/11/25 00:07:25;;;;;;;23.1;12.1;;;;;;;0.3;88.15918;94752.25;;;;
2021/11/25 00:08:25;;;;;;;23.1;12.1;;;;;;;0.3;88.15918;94752.25;;;;
2021/11/25 00:09:26;;;;;;;23.1;12.1;;;;;;;0.3;88.15918;94752.25;;;;
2021/11/25 00:10:26;;;;;;;23.1;12.1;;;;;;;0.3;88.15918;94752.25;;;;
2021/11/25 00:11:27;;;;;;;23.1;12.1;;;;;;;0.3;88.15918;94752.25;;;;
2021/11/25 00:12:28;;;;;;;23.1;12.1;;;;;;;0.3;88.15918;94752.25;;;;
2021/11/25 00:13:29;;;;;;;20.55;11.45;;;;;;;0.34;88.0752;94737.19;;;;
2021/11/25 00:14:29;;;;;;;20.55;11.45;;;;;;;0.34;88.0752;94737.19;;;;
2021/11/25 00:15:30;;;;;;;20.55;11.45;;;;;;;0.34;88.0752;94737.19;;;;
2021/11/25 00:16:31;;;;;;;20.55;11.45;;;;;;;0.34;88.0752;94737.19;;;;
2021/11/25 00:17:31;;;;;;;20.55;11.45;;;;;;;0.34;88.0752;94737.19;;;;
2021/11/25 00:18:32;;;;;;;20.55;11.45;;;;;;;0.34;88.0752;94737.19;;;;
2021/11/25 00:19:32;;;;;;;20.55;11.45;;;;;;;0.34;88.0752;94737.19;;;;
2021/11/25 00:20:33;;;;;;;20.55;11.45;;;;;;;0.34;88.0752;94737.19;;;;
2021/11/25 00:21:34;;;;;;;20.55;11.45;;;;;;;0.34;88.0752;94737.19;;;;
2021/11/25 00:22:35;;;;;;;20.55;11.45;;;;;;;0.34;88.0752;94737.19;;;;
2021/11/25 00:23:36;;;;;;;20.55;11.45;;;;;;;0.34;88.0752;94737.19;;;;
2021/11/25 00:24:37;;;;;;;19.3;11;;;;;;;0.3;88.00293;94726.62;;;;
2021/11/25 00:25:38;;;;;;;19.3;11;;;;;;;0.3;88.00293;94726.62;;;;
2021/11/25 00:26:39;;;;;;;19.3;11;;;;;;;0.3;88.00293;94726.62;;;;
2021/11/25 00:27:40;;;;;;;19.3;11;;;;;;;0.3;88.00293;94726.62;;;;
2021/11/25 00:28:41;;;;;;;19.3;11;;;;;;;0.3;88.00293;94726.62;;;;
2021/11/25 00:29:43;;;;;;;19.3;11;;;;;;;0.3;88.00293;94726.62;;;;
2021/11/25 00:30:43;;;;;;;19.3;11;;;;;;;0.3;88.00293;94726.62;;;;
2021/11/25 00:31:44;;;;;;;19.3;11;;;;;;;0.3;88.00293;94726.62;;;;
2021/11/25 00:32:45;;;;;;;19.3;11;;;;;;;0.3;88.00293;94726.62;;;;
2021/11/25 00:33:45;;;;;;;19.3;11;;;;;;;0.3;88.00293;94726.62;;;;
2021/11/25 00:34:46;;;;;;;18.8;9.400002;;;;;;;0.27;88.10059;94715.86;;;;
2021/11/25 00:35:46;;;;;;;18.8;9.400002;;;;;;;0.27;88.10059;94715.86;;;;
2021/11/25 00:36:47;;;;;;;18.8;9.400002;;;;;;;0.27;88.10059;94715.86;;;;
2021/11/25 00:37:47;;;;;;;18.8;9.400002;;;;;;;0.27;88.10059;94715.86;;;;
2021/11/25 00:38:48;;;;;;;18.8;9.400002;;;;;;;0.27;88.10059;94715.86;;;;
2021/11/25 00:39:49;;;;;;;18.8;9.400002;;;;;;;0.27;88.10059;94715.86;;;;
2021/11/25 00:40:50;;;;;;;18.8;9.400002;;;;;;;0.27;88.10059;94715.86;;;;
2021/11/25 00:41:50;;;;;;;18.8;9.400002;;;;;;;0.27;88.10059;94715.86;;;;
2021/11/25 00:42:51;;;;;;;18.8;9.400002;;;;;;;0.27;88.10059;94715.86;;;;
2021/11/25 00:43:52;;;;;;;18.8;9.400002;;;;;;;0.27;88.10059;94715.86;;;;
2021/11/25 00:44:52;;;;;;;18.8;9.400002;;;;;;;0.27;88.10059;94715.86;;;;
2021/11/25 00:45:53;;;;;;;18.6;10.2;;;;;;;0.22;88.11426;94710.71;;;;
2021/11/25 00:46:54;;;;;;;18.6;10.2;;;;;;;0.22;88.11426;94710.71;;;;
2021/11/25 00:47:54;;;;;;;18.6;10.2;;;;;;;0.22;88.11426;94710.71;;;;
2021/11/25 00:48:55;;;;;;;18.6;10.2;;;;;;;0.22;88.11426;94710.71;;;;
2021/11/25 00:49:55;;;;;;;18.6;10.2;;;;;;;0.22;88.11426;94710.71;;;;
2021/11/25 00:50:56;;;;;;;18.6;10.2;;;;;;;0.22;88.11426;94710.71;;;;
2021/11/25 00:51:57;;;;;;;18.6;10.2;;;;;;;0.22;88.11426;94710.71;;;;
2021/11/25 00:52:57;;;;;;;18.6;10.2;;;;;;;0.22;88.11426;94710.71;;;;
2021/11/25 00:53:58;;;;;;;18.6;10.2;;;;;;;0.22;88.11426;94710.71;;;;
2021/11/25 00:54:58;;;;;;;18.6;10.2;;;;;;;0.22;88.11426;94710.71;;;;
2021/11/25 00:55:59;;;;;;;18.5;10.55;;;;;;;0.22;88.2373;94710.79;;;;
2021/11/25 00:56:59;;;;;;;18.5;10.55;;;;;;;0.22;88.2373;94710.79;;;;
2021/11/25 00:58:00;;;;;;;18.5;10.55;;;;;;;0.22;88.2373;94710.79;;;;
2021/11/25 00:59:01;;;;;;;18.5;10.55;;;;;;;0.22;88.2373;94710.79;;;;
2021/11/25 01:00:05;;;;;;;18.5;10.55;;;;;;;0.22;88.2373;94710.79;;;;
2021/11/25 01:01:09;;;;;;;18.5;10.55;;;;;;;0.22;88.2373;94710.79;;;;
2021/11/25 01:02:10;;;;;;;18.5;10.55;;;;;;;0.22;88.2373;94710.79;;;;
2021/11/25 01:03:10;;;;;;;18.5;10.55;;;;;;;0.22;88.2373;94710.79;;;;
2021/11/25 01:04:11;;;;;;;18.5;10.55;;;;;;;0.22;88.2373;94710.79;;;;
2021/11/25 01:05:12;;;;;;;18.5;10.55;;;;;;;0.22;88.2373;94710.79;;;;
2021/11/25 01:06:13;;;;;;;18.5;10.55;;;;;;;0.22;88.2373;94710.79;;;;
2021/11/25 01:07:14;;;;;;;21.6;10.45;;;;;;;0.2;88.1709;94698.13;;;;
2021/11/25 01:08:14;;;;;;;21.6;10.45;;;;;;;0.2;88.1709;94698.13;;;;
2021/11/25 01:09:16;;;;;;;21.6;10.45;;;;;;;0.2;88.1709;94698.13;;;;
2021/11/25 01:10:17;;;;;;;21.6;10.45;;;;;;;0.2;88.1709;94698.13;;;;
2021/11/25 01:11:21;;;;;;;21.6;10.45;;;;;;;0.2;88.1709;94698.13;;;;
2021/11/25 01:12:22;;;;;;;21.6;10.45;;;;;;;0.2;88.1709;94698.13;;;;
2021/11/25 01:13:23;;;;;;;21.6;10.45;;;;;;;0.2;88.1709;94698.13;;;;
2021/11/25 01:14:24;;;;;;;21.6;10.45;;;;;;;0.2;88.1709;94698.13;;;;
2021/11/25 01:15:29;;;;;;;21.6;10.45;;;;;;;0.2;88.1709;94698.13;;;;
2021/11/25 01:16:32;;;;;;;21.6;10.45;;;;;;;0.2;88.1709;94698.13;;;;
2021/11/25 01:17:33;;;;;;;20.05;11.25;;;;;;;0.16;88.13184;94689.83;;;;
2021/11/25 01:18:34;;;;;;;20.05;11.25;;;;;;;0.16;88.13184;94689.83;;;;
2021/11/25 01:19:34;;;;;;;20.05;11.25;;;;;;;0.16;88.13184;94689.83;;;;
2021/11/25 01:20:36;;;;;;;20.05;11.25;;;;;;;0.16;88.13184;94689.83;;;;
2021/11/25 01:21:38;;;;;;;20.05;11.25;;;;;;;0.16;88.13184;94689.83;;;;
2021/11/25 01:22:38;;;;;;;20.05;11.25;;;;;;;0.16;88.13184;94689.83;;;;
2021/11/25 01:23:39;;;;;;;20.05;11.25;;;;;;;0.16;88.13184;94689.83;;;;
2021/11/25 01:24:40;;;;;;;20.05;11.25;;;;;;;0.16;88.13184;94689.83;;;;
2021/11/25 01:25:40;;;;;;;20.05;11.25;;;;;;;0.16;88.13184;94689.83;;;;
2021/11/25 01:26:43;;;;;;;20.05;11.25;;;;;;;0.16;88.13184;94689.83;;;;
2021/11/25 01:27:44;;;;;;;23.4;11.65;;;;;;;0.07;88.19531;94680.83;;;;
2021/11/25 01:28:45;;;;;;;23.4;11.65;;;;;;;0.07;88.19531;94680.83;;;;
2021/11/25 01:29:45;;;;;;;23.4;11.65;;;;;;;0.07;88.19531;94680.83;;;;
2021/11/25 01:30:46;;;;;;;23.4;11.65;;;;;;;0.07;88.19531;94680.83;;;;
2021/11/25 01:31:48;;;;;;;23.4;11.65;;;;;;;0.07;88.19531;94680.83;;;;
2021/11/25 01:32:49;;;;;;;23.4;11.65;;;;;;;0.07;88.19531;94680.83;;;;
2021/11/25 01:33:50;;;;;;;23.4;11.65;;;;;;;0.07;88.19531;94680.83;;;;
2021/11/25 01:34:50;;;;;;;23.4;11.65;;;;;;;0.07;88.19531;94680.83;;;;
2021/11/25 01:35:51;;;;;;;23.4;11.65;;;;;;;0.07;88.19531;94680.83;;;;
2021/11/25 01:36:53;;;;;;;23.4;11.65;;;;;;;0.07;88.19531;94680.83;;;;
2021/11/25 01:37:53;;;;;;;23.4;11.65;;;;;;;0.07;88.19531;94680.83;;;;
2021/11/25 01:38:54;;;;;;;27.2;12.55;;;;;;;0.06;88.53809;94678.67;;;;
2021/11/25 01:39:55;;;;;;;27.2;12.55;;;;;;;0.06;88.53809;94678.67;;;;
2021/11/25 01:40:56;;;;;;;27.2;12.55;;;;;;;0.06;88.53809;94678.67;;;;
2021/11/25 01:41:57;;;;;;;27.2;12.55;;;;;;;0.06;88.53809;94678.67;;;;
2021/11/25 01:42:57;;;;;;;27.2;12.55;;;;;;;0.06;88.53809;94678.67;;;;
2021/11/25 01:43:58;;;;;;;27.2;12.55;;;;;;;0.06;88.53809;94678.67;;;;
2021/11/25 01:44:59;;;;;;;27.2;12.55;;;;;;;0.06;88.53809;94678.67;;;;
2021/11/25 01:46:00;;;;;;;27.2;12.55;;;;;;;0.06;88.53809;94678.67;;;;
2021/11/25 01:47:10;;;;;;;27.2;12.55;;;;;;;0.06;88.53809;94678.67;;;;
2021/11/25 01:48:11;;;;;;;27.2;12.55;;;;;;;0.06;88.53809;94678.67;;;;
2021/11/25 01:49:11;;;;;;;25.2;12.95;;;;;;;0.06;88.30762;94670.29;;;;
2021/11/25 01:50:12;;;;;;;25.2;12.95;;;;;;;0.06;88.30762;94670.29;;;;
2021/11/25 01:51:15;;;;;;;25.2;12.95;;;;;;;0.06;88.30762;94670.29;;;;
2021/11/25 01:52:16;;;;;;;25.2;12.95;;;;;;;0.06;88.30762;94670.29;;;;
2021/11/25 01:53:17;;;;;;;25.2;12.95;;;;;;;0.06;88.30762;94670.29;;;;
2021/11/25 01:54:19;;;;;;;25.2;12.95;;;;;;;0.06;88.30762;94670.29;;;;
2021/11/25 01:55:20;;;;;;;25.2;12.95;;;;;;;0.06;88.30762;94670.29;;;;
2021/11/25 01:56:23;;;;;;;25.2;12.95;;;;;;;0.06;88.30762;94670.29;;;;
2021/11/25 01:57:23;;;;;;;25.2;12.95;;;;;;;0.06;88.30762;94670.29;;;;
2021/11/25 01:58:24;;;;;;;25.2;12.95;;;;;;;0.06;88.30762;94670.29;;;;
2021/11/25 01:59:25;;;;;;;25.2;12.95;;;;;;;0.06;88.30762;94670.29;;;;
2021/11/25 02:00:26;;;;;;;22.9;12.15;;;;;;;0.07;88.33105;94639.7;;;;
2021/11/25 02:01:34;;;;;;;22.9;12.15;;;;;;;0.07;88.33105;94639.7;;;;
2021/11/25 02:02:34;;;;;;;22.9;12.15;;;;;;;0.07;88.33105;94639.7;;;;
2021/11/25 02:03:35;;;;;;;22.9;12.15;;;;;;;0.07;88.33105;94639.7;;;;
2021/11/25 02:04:36;;;;;;;22.9;12.15;;;;;;;0.07;88.33105;94639.7;;;;
2021/11/25 02:05:37;;;;;;;22.9;12.15;;;;;;;0.07;88.33105;94639.7;;;;
2021/11/25 02:06:37;;;;;;;22.9;12.15;;;;;;;0.07;88.33105;94639.7;;;;
2021/11/25 02:07:39;;;;;;;22.9;12.15;;;;;;;0.07;88.33105;94639.7;;;;
2021/11/25 02:08:40;;;;;;;22.9;12.15;;;;;;;0.07;88.33105;94639.7;;;;
2021/11/25 02:09:41;;;;;;;22.9;12.15;;;;;;;0.07;88.33105;94639.7;;;;
2021/11/25 02:10:41;;;;;;;18.85;10.85;;;;;;;0.05;88.28516;94631.02;;;;
2021/11/25 02:11:46;;;;;;;18.85;10.85;;;;;;;0.05;88.28516;94631.02;;;;
2021/11/25 02:12:47;;;;;;;18.85;10.85;;;;;;;0.05;88.28516;94631.02;;;;
2021/11/25 02:13:48;;;;;;;18.85;10.85;;;;;;;0.05;88.28516;94631.02;;;;
2021/11/25 02:14:48;;;;;;;18.85;10.85;;;;;;;0.05;88.28516;94631.02;;;;
2021/11/25 02:15:49;;;;;;;18.85;10.85;;;;;;;0.05;88.28516;94631.02;;;;
2021/11/25 02:16:52;;;;;;;18.85;10.85;;;;;;;0.05;88.28516;94631.02;;;;
2021/11/25 02:17:52;;;;;;;18.85;10.85;;;;;;;0.05;88.28516;94631.02;;;;
2021/11/25 02:18:53;;;;;;;18.85;10.85;;;;;;;0.05;88.28516;94631.02;;;;
2021/11/25 02:19:56;;;;;;;18.85;10.85;;;;;;;0.05;88.28516;94631.02;;;;
2021/11/25 02:20:57;;;;;;;18.85;10.85;;;;;;;0.05;88.28516;94631.02;;;;
2021/11/25 02:22:00;;;;;;;26.25;13.5;;;;;;;0;88.46191;94613.11;;;;
2021/11/25 02:23:01;;;;;;;26.25;13.5;;;;;;;0;88.46191;94613.11;;;;
2021/11/25 02:24:02;;;;;;;26.25;13.5;;;;;;;0;88.46191;94613.11;;;;
2021/11/25 02:25:04;;;;;;;26.25;13.5;;;;;;;0;88.46191;94613.11;;;;
2021/11/25 02:26:07;;;;;;;26.25;13.5;;;;;;;0;88.46191;94613.11;;;;
2021/11/25 02:27:08;;;;;;;26.25;13.5;;;;;;;0;88.46191;94613.11;;;;
2021/11/25 02:28:09;;;;;;;26.25;13.5;;;;;;;0;88.46191;94613.11;;;;
2021/11/25 02:29:10;;;;;;;26.25;13.5;;;;;;;0;88.46191;94613.11;;;;
2021/11/25 02:30:10;;;;;;;26.25;13.5;;;;;;;0;88.46191;94613.11;;;;
2021/11/25 02:31:13;;;;;;;26.25;13.5;;;;;;;0;88.46191;94613.11;;;;
2021/11/25 02:32:13;;;;;;;23.8;12.7;;;;;;;-0.04;88.6416;94607.33;;;;
2021/11/25 02:33:28;;;;;;;23.8;12.7;;;;;;;-0.04;88.6416;94607.33;;;;
2021/11/25 02:34:28;;;;;;;23.8;12.7;;;;;;;-0.04;88.6416;94607.33;;;;
2021/11/25 02:35:29;;;;;;;23.8;12.7;;;;;;;-0.04;88.6416;94607.33;;;;
2021/11/25 02:36:32;;;;;;;23.8;12.7;;;;;;;-0.04;88.6416;94607.33;;;;
2021/11/25 02:37:32;;;;;;;23.8;12.7;;;;;;;-0.04;88.6416;94607.33;;;;
2021/11/25 02:38:33;;;;;;;23.8;12.7;;;;;;;-0.04;88.6416;94607.33;;;;
2021/11/25 02:39:35;;;;;;;23.8;12.7;;;;;;;-0.04;88.6416;94607.33;;;;
2021/11/25 02:40:36;;;;;;;23.8;12.7;;;;;;;-0.04;88.6416;94607.33;;;;
2021/11/25 02:41:39;;;;;;;23.8;12.7;;;;;;;-0.04;88.6416;94607.33;;;;
2021/11/25 02:42:40;;;;;;;23.7;12.95;;;;;;;-0.01;88.90723;94595.94;;;;
2021/11/25 02:43:41;;;;;;;23.7;12.95;;;;;;;-0.01;88.90723;94595.94;;;;
2021/11/25 02:44:41;;;;;;;23.7;12.95;;;;;;;-0.01;88.90723;94595.94;;;;
2021/11/25 02:45:42;;;;;;;23.7;12.95;;;;;;;-0.01;88.90723;94595.94;;;;
2021/11/25 02:46:45;;;;;;;23.7;12.95;;;;;;;-0.01;88.90723;94595.94;;;;
2021/11/25 02:47:48;;;;;;;23.7;12.95;;;;;;;-0.01;88.90723;94595.94;;;;
2021/11/25 02:48:49;;;;;;;23.7;12.95;;;;;;;-0.01;88.90723;94595.94;;;;
2021/11/25 02:49:54;;;;;;;23.7;12.95;;;;;;;-0.01;88.90723;94595.94;;;;
2021/11/25 02:50:54;;;;;;;23.7;12.95;;;;;;;-0.01;88.90723;94595.94;;;;
2021/11/25 02:51:57;;;;;;;23.7;12.95;;;;;;;-0.01;88.90723;94595.94;;;;
2021/11/25 02:52:58;;;;;;;23.7;12.95;;;;;;;-0.01;88.90723;94595.94;;;;
2021/11/25 02:53:58;;;;;;;17.4;9.950001;;;;;;;-0.01;88.88672;94578.7;;;;
2021/11/25 02:54:59;;;;;;;17.4;9.950001;;;;;;;-0.01;88.88672;94578.7;;;;
2021/11/25 02:56:00;;;;;;;17.4;9.950001;;;;;;;-0.01;88.88672;94578.7;;;;
2021/11/25 02:57:04;;;;;;;17.4;9.950001;;;;;;;-0.01;88.88672;94578.7;;;;
2021/11/25 02:58:04;;;;;;;17.4;9.950001;;;;;;;-0.01;88.88672;94578.7;;;;
2021/11/25 02:59:05;;;;;;;17.4;9.950001;;;;;;;-0.01;88.88672;94578.7;;;;
2021/11/25 03:00:06;;;;;;;17.4;9.950001;;;;;;;-0.01;88.88672;94578.7;;;;
2021/11/25 03:01:28;;;;;;;17.4;9.950001;;;;;;;-0.01;88.88672;94578.7;;;;
2021/11/25 03:02:32;;;;;;;17.4;9.950001;;;;;;;-0.01;88.88672;94578.7;;;;
2021/11/25 03:03:32;;;;;;;17.4;9.950001;;;;;;;-0.01;88.88672;94578.7;;;;
2021/11/25 03:04:33;;;;;;;19.5;11.05;;;;;;;-0.03;88.89355;94581.62;;;;
2021/11/25 03:05:34;;;;;;;19.5;11.05;;;;;;;-0.03;88.89355;94581.62;;;;
2021/11/25 03:06:35;;;;;;;19.5;11.05;;;;;;;-0.03;88.89355;94581.62;;;;
2021/11/25 03:07:37;;;;;;;19.5;11.05;;;;;;;-0.03;88.89355;94581.62;;;;
2021/11/25 03:08:37;;;;;;;19.5;11.05;;;;;;;-0.03;88.89355;94581.62;;;;
2021/11/25 03:09:38;;;;;;;19.5;11.05;;;;;;;-0.03;88.89355;94581.62;;;;
2021/11/25 03:10:39;;;;;;;19.5;11.05;;;;;;;-0.03;88.89355;94581.62;;;;
2021/11/25 03:11:43;;;;;;;19.5;11.05;;;;;;;-0.03;88.89355;94581.62;;;;
2021/11/25 03:12:43;;;;;;;19.5;11.05;;;;;;;-0.03;88.89355;94581.62;;;;
2021/11/25 03:13:44;;;;;;;19.5;11.05;;;;;;;-0.03;88.89355;94581.62;;;;
2021/11/25 03:14:48;;;;;;;19.5;11.05;;;;;;;-0.03;88.89355;94581.62;;;;
2021/11/25 03:15:48;;;;;;;19.5;11.05;;;;;;;-0.03;88.89355;94581.62;;;;
2021/11/25 03:16:49;;;;;;;19.5;11.05;;;;;;;-0.03;88.89355;94581.62;;;;
2021/11/25 03:17:50;;;;;;;19.5;11.05;;;;;;;-0.03;88.89355;94581.62;;;;
2021/11/25 03:18:50;;;;;;;19.5;11.05;;;;;;;-0.03;88.89355;94581.62;;;;
2021/11/25 03:19:52;;;;;;;19.5;11.05;;;;;;;-0.03;88.89355;94581.62;;;;
2021/11/25 03:20:53;;;;;;;19.5;11.05;;;;;;;-0.03;88.89355;94581.62;;;;
2021/11/25 03:21:54;;;;;;;19.5;11.05;;;;;;;-0.03;88.89355;94581.62;;;;
2021/11/25 03:22:55;;;;;;;19.5;11.05;;;;;;;-0.03;88.89355;94581.62;;;;
2021/11/25 03:23:56;;;;;;;19.5;11.05;;;;;;;-0.03;88.89355;94581.62;;;;
2021/11/25 03:24:57;;;;;;;19.5;11.05;;;;;;;-0.03;88.89355;94581.62;;;;
2021/11/25 03:25:57;;;;;;;21.6;11.55;;;;;;;0.02;88.72656;94569.94;;;;
2021/11/25 03:26:59;;;;;;;21.6;11.55;;;;;;;0.02;88.72656;94569.94;;;;
2021/11/25 03:28:00;;;;;;;21.6;11.55;;;;;;;0.02;88.72656;94569.94;;;;
2021/11/25 03:29:01;;;;;;;21.6;11.55;;;;;;;0.02;88.72656;94569.94;;;;
2021/11/25 03:30:03;;;;;;;21.6;11.55;;;;;;;0.02;88.72656;94569.94;;;;
2021/11/25 03:31:05;;;;;;;21.6;11.55;;;;;;;0.02;88.72656;94569.94;;;;
2021/11/25 03:32:06;;;;;;;21.6;11.55;;;;;;;0.02;88.72656;94569.94;;;;
2021/11/25 03:33:08;;;;;;;21.6;11.55;;;;;;;0.02;88.72656;94569.94;;;;
2021/11/25 03:34:11;;;;;;;21.6;11.55;;;;;;;0.02;88.72656;94569.94;;;;
2021/11/25 03:35:11;;;;;;;0;0;;;;;;;0;0;0;;;;
2021/11/25 03:36:12;;;;;;;0;0;;;;;;;0;0;0;;;;
2021/11/25 03:37:13;;;;;;;0;0;;;;;;;0;0;0;;;;
2021/11/25 03:38:14;;;;;;;0;0;;;;;;;0;0;0;;;;
2021/11/25 03:39:15;;;;;;;0;0;;;;;;;0;0;0;;;;
2021/11/25 03:40:16;;;;;;;0;0;;;;;;;0;0;0;;;;
2021/11/25 03:41:17;;;;;;;0;0;;;;;;;0;0;0;;;;
2021/11/25 03:42:18;;;;;;;0;0;;;;;;;0;0;0;;;;
2021/11/25 03:43:19;;;;;;;0;0;;;;;;;0;0;0;;;;
2021/11/25 03:44:20;;;;;;;0;0;;;;;;;0;0;0;;;;
2021/11/25 03:45:21;;;;;;;0;0;;;;;;;0;0;0;;;;
2021/11/25 03:46:22;;;;;;;0;0;;;;;;;0;0;0;;;;
2021/11/25 03:47:23;;;;;;;0;0;;;;;;;0;0;0;;;;
2021/11/25 03:48:28;;;;;;;0;0;;;;;;;0;0;0;;;;
2021/11/25 03:49:29;;;;;;;0;0;;;;;;;0;0;0;;;;
2021/11/25 03:50:29;;;;;;;0;0;;;;;;;0;0;0;;;;
2021/11/25 03:51:30;;;;;;;0;0;;;;;;;0;0;0;;;;
2021/11/25 03:52:30;;;;;;;0;0;;;;;;;0;0;0;;;;
2021/11/25 03:53:31;;;;;;;0;0;;;;;;;0;0;0;;;;
2021/11/25 03:54:33;;;;;;;0;0;;;;;;;0;0;0;;;;
2021/11/25 03:55:34;;;;;;;0;0;;;;;;;0;0;0;;;;
2021/11/25 03:56:36;;;;;;;0;0;;;;;;;0;0;0;;;;
2021/11/25 03:57:36;;;;;;;0;0;;;;;;;0;0;0;;;;
2021/11/25 03:58:37;;;;;;;0;0;;;;;;;0;0;0;;;;
2021/11/25 03:59:37;;;;;;;0;0;;;;;;;0;0;0;;;;
2021/11/25 04:00:38;;;;;;;0;0;;;;;;;0;0;0;;;;
2021/11/25 04:01:39;;;;;;;0;0;;;;;;;0;0;0;;;;
2021/11/25 04:02:41;;;;;;;0;0;;;;;;;0;0;0;;;;
2021/11/25 04:03:43;;;;;;;0;0;;;;;;;0;0;0;;;;
2021/11/25 04:04:43;;;;;;;0;0;;;;;;;0;0;0;;;;
2021/11/25 04:05:45;;;;;;;21.5;10.75;;;;;;;-0.46;89.11426;94562.19;;;;
2021/11/25 04:06:45;;;;;;;21.5;10.75;;;;;;;-0.46;89.11426;94562.19;;;;
2021/11/25 04:07:46;;;;;;;21.5;10.75;;;;;;;-0.46;89.11426;94562.19;;;;
2021/11/25 04:08:47;;;;;;;21.5;10.75;;;;;;;-0.46;89.11426;94562.19;;;;
2021/11/25 04:09:47;;;;;;;21.5;10.75;;;;;;;-0.46;89.11426;94562.19;;;;
2021/11/25 04:10:48;;;;;;;21.5;10.75;;;;;;;-0.46;89.11426;94562.19;;;;
2021/11/25 04:11:49;;;;;;;21.5;10.75;;;;;;;-0.46;89.11426;94562.19;;;;
2021/11/25 04:12:50;;;;;;;21.5;10.75;;;;;;;-0.46;89.11426;94562.19;;;;
2021/11/25 04:13:51;;;;;;;21.5;10.75;;;;;;;-0.46;89.11426;94562.19;;;;
2021/11/25 04:14:51;;;;;;;21.5;10.75;;;;;;;-0.46;89.11426;94562.19;;;;
2021/11/25 04:15:52;;;;;;;21.5;10.75;;;;;;;-0.46;89.11426;94562.19;;;;
2021/11/25 04:16:53;;;;;;;20.3;11.05;;;;;;;-0.43;88.9541;94547.76;;;;
2021/11/25 04:17:53;;;;;;;20.3;11.05;;;;;;;-0.43;88.9541;94547.76;;;;
2021/11/25 04:18:54;;;;;;;20.3;11.05;;;;;;;-0.43;88.9541;94547.76;;;;
2021/11/25 04:19:55;;;;;;;20.3;11.05;;;;;;;-0.43;88.9541;94547.76;;;;
2021/11/25 04:20:56;;;;;;;20.3;11.05;;;;;;;-0.43;88.9541;94547.76;;;;
2021/11/25 04:21:56;;;;;;;20.3;11.05;;;;;;;-0.43;88.9541;94547.76;;;;
2021/11/25 04:22:58;;;;;;;20.3;11.05;;;;;;;-0.43;88.9541;94547.76;;;;
2021/11/25 04:23:58;;;;;;;20.3;11.05;;;;;;;-0.43;88.9541;94547.76;;;;
2021/11/25 04:24:59;;;;;;;20.3;11.05;;;;;;;-0.43;88.9541;94547.76;;;;
2021/11/25 04:26:00;;;;;;;20.3;11.05;;;;;;;-0.43;88.9541;94547.76;;;;
2021/11/25 04:27:00;;;;;;;0;0;;;;;;;0;0;0;;;;
2021/11/25 04:28:01;;;;;;;0;0;;;;;;;0;0;0;;;;
2021/11/25 04:29:03;;;;;;;0;0;;;;;;;0;0;0;;;;
2021/11/25 04:30:08;;;;;;;0;0;;;;;;;0;0;0;;;;
2021/11/25 04:36:22;;;;;;;0;0;;;;;;;0;0;0;;;;
2021/11/25 04:37:23;;;;;;;0;0;;;;;;;0;0;0;;;;
2021/11/25 04:38:24;;;;;;;0;0;;;;;;;0;0;0;;;;
2021/11/25 04:39:26;;;;;;;0;0;;;;;;;0;0;0;;;;
2021/11/25 04:40:27;;;;;;;0;0;;;;;;;0;0;0;;;;
2021/11/25 04:41:28;;;;;;;0;0;;;;;;;0;0;0;;;;
2021/11/25 04:42:28;;;;;;;0;0;;;;;;;0;0;0;;;;
2021/11/25 04:43:29;;;;;;;0;0;;;;;;;0;0;0;;;;
2021/11/25 04:44:30;;;;;;;0;0;;;;;;;0;0;0;;;;
2021/11/25 04:45:31;;;;;;;0;0;;;;;;;0;0;0;;;;
2021/11/25 04:46:32;;;;;;;0;0;;;;;;;0;0;0;;;;
2021/11/25 04:47:34;;;;;;;0;0;;;;;;;0;0;0;;;;
2021/11/25 04:48:35;;;;;;;0;0;;;;;;;0;0;0;;;;
2021/11/25 04:49:36;;;;;;;0;0;;;;;;;0;0;0;;;;
2021/11/25 04:50:36;;;;;;;0;0;;;;;;;0;0;0;;;;
2021/11/25 04:51:39;;;;;;;0;0;;;;;;;0;0;0;;;;
2021/11/25 04:52:39;;;;;;;0;0;;;;;;;0;0;0;;;;
2021/11/25 04:53:40;;;;;;;0;0;;;;;;;0;0;0;;;;
2021/11/25 04:54:40;;;;;;;0;0;;;;;;;0;0;0;;;;
2021/11/25 04:55:41;;;;;;;0;0;;;;;;;0;0;0;;;;
2021/11/25 04:56:43;;;;;;;0;0;;;;;;;0;0;0;;;;
2021/11/25 04:57:43;;;;;;;18.9;10.25;;;;;;;-0.59;89.22363;94505.46;;;;
2021/11/25 04:58:44;;;;;;;18.9;10.25;;;;;;;-0.59;89.22363;94505.46;;;;
2021/11/25 04:59:44;;;;;;;18.9;10.25;;;;;;;-0.59;89.22363;94505.46;;;;
2021/11/25 05:00:45;;;;;;;18.9;10.25;;;;;;;-0.59;89.22363;94505.46;;;;
2021/11/25 05:01:46;;;;;;;18.9;10.25;;;;;;;-0.59;89.22363;94505.46;;;;
2021/11/25 05:02:47;;;;;;;18.9;10.25;;;;;;;-0.59;89.22363;94505.46;;;;
2021/11/25 05:03:47;;;;;;;18.9;10.25;;;;;;;-0.59;89.22363;94505.46;;;;
2021/11/25 05:04:48;;;;;;;18.9;10.25;;;;;;;-0.59;89.22363;94505.46;;;;
2021/11/25 05:05:48;;;;;;;18.9;10.25;;;;;;;-0.59;89.22363;94505.46;;;;
2021/11/25 05:06:49;;;;;;;18.9;10.25;;;;;;;-0.59;89.22363;94505.46;;;;
2021/11/25 05:07:50;;;;;;;0;0;;;;;;;0;0;0;;;;
2021/11/25 05:08:50;;;;;;;0;0;;;;;;;0;0;0;;;;
2021/11/25 05:09:51;;;;;;;0;0;;;;;;;0;0;0;;;;
2021/11/25 05:10:51;;;;;;;0;0;;;;;;;0;0;0;;;;
2021/11/25 05:11:52;;;;;;;0;0;;;;;;;0;0;0;;;;
2021/11/25 05:12:52;;;;;;;0;0;;;;;;;0;0;0;;;;
2021/11/25 05:13:53;;;;;;;0;0;;;;;;;0;0;0;;;;
2021/11/25 05:14:54;;;;;;;0;0;;;;;;;0;0;0;;;;
2021/11/25 05:15:54;;;;;;;0;0;;;;;;;0;0;0;;;;
2021/11/25 05:16:55;;;;;;;0;0;;;;;;;0;0;0;;;;
2021/11/25 05:17:55;;;;;;;0;0;;;;;;;0;0;0;;;;
2021/11/25 05:18:56;;;;;;;0;0;;;;;;;0;0;0;;;;
2021/11/25 05:19:56;;;;;;;0;0;;;;;;;0;0;0;;;;
2021/11/25 05:20:57;;;;;;;0;0;;;;;;;0;0;0;;;;
2021/11/25 05:21:57;;;;;;;0;0;;;;;;;0;0;0;;;;
2021/11/25 05:22:58;;;;;;;0;0;;;;;;;0;0;0;;;;
2021/11/25 05:23:58;;;;;;;0;0;;;;;;;0;0;0;;;;
2021/11/25 05:24:59;;;;;;;0;0;;;;;;;0;0;0;;;;
2021/11/25 05:26:00;;;;;;;0;0;;;;;;;0;0;0;;;;
2021/11/25 05:27:00;;;;;;;0;0;;;;;;;0;0;0;;;;
2021/11/25 05:28:01;;;;;;;0;0;;;;;;;0;0;0;;;;
2021/11/25 05:29:01;;;;;;;0;0;;;;;;;0;0;0;;;;
2021/11/25 05:30:02;;;;;;;0;0;;;;;;;0;0;0;;;;
2021/11/25 05:31:04;;;;;;;0;0;;;;;;;0;0;0;;;;
2021/11/25 05:32:05;;;;;;;0;0;;;;;;;0;0;0;;;;
2021/11/25 05:33:07;;;;;;;0;0;;;;;;;0;0;0;;;;
2021/11/25 05:34:07;;;;;;;0;0;;;;;;;0;0;0;;;;
2021/11/25 05:35:08;;;;;;;0;0;;;;;;;0;0;0;;;;
2021/11/25 05:36:10;;;;;;;0;0;;;;;;;0;0;0;;;;
2021/11/25 05:37:10;;;;;;;0;0;;;;;;;0;0;0;;;;
2021/11/25 05:38:13;;;;;;;25.95;11.95;;;;;;;-0.73;89.46387;94495.73;;;;
2021/11/25 05:39:14;;;;;;;25.95;11.95;;;;;;;-0.73;89.46387;94495.73;;;;
2021/11/25 05:40:15;;;;;;;25.95;11.95;;;;;;;-0.73;89.46387;94495.73;;;;
2021/11/25 05:41:15;;;;;;;25.95;11.95;;;;;;;-0.73;89.46387;94495.73;;;;
2021/11/25 05:42:17;;;;;;;25.95;11.95;;;;;;;-0.73;89.46387;94495.73;;;;
2021/11/25 05:43:18;;;;;;;25.95;11.95;;;;;;;-0.73;89.46387;94495.73;;;;
2021/11/25 05:44:19;;;;;;;25.95;11.95;;;;;;;-0.73;89.46387;94495.73;;;;
2021/11/25 05:45:19;;;;;;;25.95;11.95;;;;;;;-0.73;89.46387;94495.73;;;;
2021/11/25 05:46:20;;;;;;;25.95;11.95;;;;;;;-0.73;89.46387;94495.73;;;;
2021/11/25 05:47:21;;;;;;;25.95;11.95;;;;;;;-0.73;89.46387;94495.73;;;;
2021/11/25 05:48:23;;;;;;;0;0;;;;;;;0;0;0;;;;
2021/11/25 05:49:24;;;;;;;0;0;;;;;;;0;0;0;;;;
2021/11/25 05:50:24;;;;;;;0;0;;;;;;;0;0;0;;;;
2021/11/25 05:51:26;;;;;;;0;0;;;;;;;0;0;0;;;;
2021/11/25 05:52:27;;;;;;;0;0;;;;;;;0;0;0;;;;
2021/11/25 05:53:28;;;;;;;0;0;;;;;;;0;0;0;;;;
2021/11/25 05:54:28;;;;;;;0;0;;;;;;;0;0;0;;;;
2021/11/25 05:55:30;;;;;;;0;0;;;;;;;0;0;0;;;;
2021/11/25 05:56:30;;;;;;;0;0;;;;;;;0;0;0;;;;
2021/11/25 05:57:31;;;;;;;0;0;;;;;;;0;0;0;;;;
2021/11/25 05:58:32;;;;;;;0;0;;;;;;;0;0;0;;;;
2021/11/25 05:59:33;;;;;;;0;0;;;;;;;0;0;0;;;;
2021/11/25 06:00:33;;;;;;;0;0;;;;;;;0;0;0;;;;
2021/11/25 06:01:34;;;;;;;0;0;;;;;;;0;0;0;;;;
2021/11/25 06:02:35;;;;;;;0;0;;;;;;;0;0;0;;;;
2021/11/25 06:03:35;;;;;;;0;0;;;;;;;0;0;0;;;;
2021/11/25 06:04:36;;;;;;;0;0;;;;;;;0;0;0;;;;
2021/11/25 06:05:37;;;;;;;0;0;;;;;;;0;0;0;;;;
2021/11/25 06:06:37;;;;;;;0;0;;;;;;;0;0;0;;;;
2021/11/25 06:07:42;;;;;;;0;0;;;;;;;0;0;0;;;;
2021/11/25 06:08:43;;;;;;;0;0;;;;;;;0;0;0;;;;
2021/11/25 06:09:43;;;;;;;0;0;;;;;;;0;0;0;;;;
2021/11/25 06:10:44;;;;;;;0;0;;;;;;;0;0;0;;;;
2021/11/25 06:11:47;;;;;;;0;0;;;;;;;0;0;0;;;;
2021/11/25 06:12:47;;;;;;;0;0;;;;;;;0;0;0;;;;
2021/11/25 06:13:49;;;;;;;0;0;;;;;;;0;0;0;;;;
2021/11/25 06:14:50;;;;;;;0;0;;;;;;;0;0;0;;;;
2021/11/25 06:15:50;;;;;;;0;0;;;;;;;0;0;0;;;;
2021/11/25 06:16:51;;;;;;;0;0;;;;;;;0;0;0;;;;
2021/11/25 06:17:51;;;;;;;0;0;;;;;;;0;0;0;;;;
2021/11/25 06:18:52;;;;;;;0;0;;;;;;;0;0;0;;;;
2021/11/25 06:19:53;;;;;;;0;0;;;;;;;0;0;0;;;;
2021/11/25 06:20:54;;;;;;;0;0;;;;;;;0;0;0;;;;
2021/11/25 06:21:54;;;;;;;0;0;;;;;;;0;0;0;;;;
2021/11/25 06:22:55;;;;;;;0;0;;;;;;;0;0;0;;;;
2021/11/25 06:23:56;;;;;;;0;0;;;;;;;0;0;0;;;;
2021/11/25 06:24:56;;;;;;;0;0;;;;;;;0;0;0;;;;
2021/11/25 06:25:57;;;;;;;0;0;;;;;;;0;0;0;;;;
2021/11/25 06:26:57;;;;;;;0;0;;;;;;;0;0;0;;;;
2021/11/25 06:27:58;;;;;;;0;0;;;;;;;0;0;0;;;;
2021/11/25 06:28:59;;;;;;;0;0;;;;;;;0;0;0;;;;
2021/11/25 06:29:59;;;;;;;0;0;;;;;;;0;0;0;;;;
2021/11/25 06:31:00;;;;;;;0;0;;;;;;;0;0;0;;;;
2021/11/25 06:32:01;;;;;;;0;0;;;;;;;0;0;0;;;;
2021/11/25 06:33:01;;;;;;;0;0;;;;;;;0;0;0;;;;
2021/11/25 06:34:02;;;;;;;0;0;;;;;;;0;0;0;;;;
2021/11/25 06:35:07;;;;;;;0;0;;;;;;;0;0;0;;;;
2021/11/25 06:36:09;;;;;;;0;0;;;;;;;0;0;0;;;;
2021/11/25 06:37:10;;;;;;;0;0;;;;;;;0;0;0;;;;
2021/11/25 06:38:10;;;;;;;0;0;;;;;;;0;0;0;;;;